Time,TemperatureF,DewpointF,PressureIn,WindDirection,WindDirectionDegrees,WindSpeedMPH,WindSpeedGustMPH,Humidity,HourlyPrecipIn,Conditions,Clouds,dailyrainin,SoftwareType,DateUTC
2013-02-07 00:01:00,22.0,21.0,-100.00,SW,218,8.0,14.0,94,-99.99,,,-99.99,,2013-02-07 00:01:00,
2013-02-07 00:11:00,22.0,21.0,-100.00,SW,218,8.0,14.0,94,-99.99,,,-99.99,,2013-02-07 00:11:00,
2013-02-07 00:21:00,21.0,20.0,-100.00,SW,215,10.0,16.0,95,-99.99,,,-99.99,,2013-02-07 00:21:00,
2013-02-07 00:31:00,21.0,20.0,-100.00,SSW,206,7.0,12.0,95,-99.99,,,-99.99,,2013-02-07 00:31:00,
2013-02-07 00:41:00,21.0,20.0,-100.00,SSW,206,7.0,12.0,95,-99.99,,,-99.99,,2013-02-07 00:41:00,
2013-02-07 00:51:00,21.0,20.0,-100.00,SSW,213,7.0,17.0,94,-99.99,,,-99.99,,2013-02-07 00:51:00,
2013-02-07 01:01:00,21.0,20.0,-100.00,SW,218,8.0,15.0,95,-99.99,,,-99.99,,2013-02-07 01:01:00,
2013-02-07 01:11:00,21.0,20.0,-100.00,SW,218,8.0,15.0,95,-99.99,,,-99.99,,2013-02-07 01:11:00,
2013-02-07 01:21:00,21.0,20.0,-100.00,SSW,212,6.0,15.0,95,-99.99,,,-99.99,,2013-02-07 01:21:00,
2013-02-07 01:31:00,21.0,20.0,-100.00,SSW,212,6.0,15.0,95,-99.99,,,-99.99,,2013-02-07 01:31:00,
2013-02-07 01:41:00,21.0,20.0,-100.00,SSW,212,6.0,15.0,95,-99.99,,,-99.99,,2013-02-07 01:41:00,
2013-02-07 01:52:00,21.0,20.0,-100.00,South,190,4.0,9.0,95,-99.99,,,-99.99,,2013-02-07 01:52:00,
2013-02-07 02:01:00,21.0,20.0,-100.00,SSW,194,2.0,6.0,95,-99.99,,,-99.99,,2013-02-07 02:01:00,
2013-02-07 02:11:00,21.0,20.0,-100.00,SSW,194,2.0,6.0,95,-99.99,,,-99.99,,2013-02-07 02:11:00,
2013-02-07 02:21:00,21.0,20.0,-100.00,SSW,202,2.0,4.0,95,-99.99,,,-99.99,,2013-02-07 02:21:00,
2013-02-07 02:31:00,21.0,20.0,-100.00,SW,219,4.0,6.0,95,-99.99,,,-99.99,,2013-02-07 02:31:00,
2013-02-07 02:41:00,21.0,20.0,-100.00,SW,219,4.0,6.0,95,-99.99,,,-99.99,,2013-02-07 02:41:00,
2013-02-07 02:51:00,21.0,20.0,-100.00,SW,219,4.0,6.0,95,-99.99,,,-99.99,,2013-02-07 02:51:00,
2013-02-07 03:02:00,21.0,20.0,-100.00,SW,222,3.0,6.0,95,-99.99,,,-99.99,,2013-02-07 03:02:00,
2013-02-07 03:11:00,21.0,20.0,-100.00,SW,222,3.0,6.0,95,-99.99,,,-99.99,,2013-02-07 03:11:00,
2013-02-07 03:21:00,21.0,20.0,-100.00,SW,224,3.0,6.0,95,-99.99,,,-99.99,,2013-02-07 03:21:00,
2013-02-07 03:31:00,21.0,20.0,-100.00,SW,224,3.0,6.0,95,-99.99,,,-99.99,,2013-02-07 03:31:00,
2013-02-07 03:41:00,21.0,20.0,-100.00,SW,224,3.0,6.0,95,-99.99,,,-99.99,,2013-02-07 03:41:00,
2013-02-07 03:51:00,20.0,19.0,-100.00,SW,221,1.0,3.0,94,-99.99,,,-99.99,,2013-02-07 03:51:00,
2013-02-07 04:01:00,20.0,19.0,-100.00,SW,232,2.0,4.0,94,-99.99,,,-99.99,,2013-02-07 04:01:00,
2013-02-07 04:11:00,20.0,19.0,-100.00,SW,232,2.0,4.0,94,-99.99,,,-99.99,,2013-02-07 04:11:00,
2013-02-07 04:22:00,21.0,20.0,-100.00,SSW,213,2.0,4.0,94,-99.99,,,-99.99,,2013-02-07 04:22:00,
2013-02-07 04:31:00,21.0,20.0,-100.00,SSW,206,1.0,3.0,94,-99.99,,,-99.99,,2013-02-07 04:31:00,
2013-02-07 04:41:00,21.0,20.0,-100.00,SSW,206,1.0,3.0,94,-99.99,,,-99.99,,2013-02-07 04:41:00,
2013-02-07 04:52:00,21.0,20.0,-100.00,SSW,213,1.0,2.0,95,-99.99,,,-99.99,,2013-02-07 04:52:00,
2013-02-07 05:01:00,21.0,20.0,-100.00,SW,228,0.0,2.0,94,-99.99,,,-99.99,,2013-02-07 05:01:00,
2013-02-07 05:11:00,21.0,20.0,-100.00,SW,228,0.0,2.0,94,-99.99,,,-99.99,,2013-02-07 05:11:00,
2013-02-07 05:21:00,21.0,20.0,-100.00,SW,214,0.0,1.0,94,-99.99,,,-99.99,,2013-02-07 05:21:00,
2013-02-07 05:32:00,21.0,20.0,-100.00,SSW,200,0.0,0.0,94,-99.99,,,-99.99,,2013-02-07 05:32:00,
2013-02-07 05:42:00,21.0,20.0,-100.00,SSW,200,0.0,0.0,94,-99.99,,,-99.99,,2013-02-07 05:42:00,
2013-02-07 05:52:00,21.0,20.0,-100.00,SW,226,1.0,2.0,94,-99.99,,,-99.99,,2013-02-07 05:52:00,
2013-02-07 06:01:00,21.0,20.0,-100.00,WSW,237,0.0,1.0,95,-99.99,,,-99.99,,2013-02-07 06:01:00,
2013-02-07 06:11:00,21.0,20.0,-100.00,WSW,237,0.0,1.0,95,-99.99,,,-99.99,,2013-02-07 06:11:00,
2013-02-07 06:22:00,21.0,20.0,-100.00,SW,222,0.0,0.0,95,-99.99,,,-99.99,,2013-02-07 06:22:00,
2013-02-07 06:31:00,21.0,20.0,-100.00,SW,227,0.0,1.0,95,-99.99,,,-99.99,,2013-02-07 06:31:00,
2013-02-07 06:43:00,21.0,20.0,-100.00,SW,227,0.0,1.0,95,-99.99,,,-99.99,,2013-02-07 06:43:00,
2013-02-07 06:52:00,21.0,20.0,-100.00,SSW,210,0.0,2.0,95,-99.99,,,-99.99,,2013-02-07 06:52:00,
2013-02-07 07:01:00,21.0,20.0,-100.00,SSW,204,0.0,2.0,94,-99.99,,,-99.99,,2013-02-07 07:01:00,
2013-02-07 07:11:00,21.0,20.0,-100.00,SSW,204,0.0,2.0,94,-99.99,,,-99.99,,2013-02-07 07:11:00,
2013-02-07 07:21:00,21.0,20.0,-100.00,SSW,204,0.0,2.0,94,-99.99,,,-99.99,,2013-02-07 07:21:00,
2013-02-07 07:31:00,21.0,20.0,-100.00,East,87,2.0,4.0,94,-99.99,,,-99.99,,2013-02-07 07:31:00,
2013-02-07 07:42:00,21.0,20.0,-100.00,East,87,2.0,4.0,94,-99.99,,,-99.99,,2013-02-07 07:42:00,
2013-02-07 07:52:00,21.0,20.0,-100.00,East,87,2.0,4.0,94,-99.99,,,-99.99,,2013-02-07 07:52:00,
2013-02-07 08:01:00,20.0,19.0,-100.00,East,89,0.0,2.0,94,-99.99,,,-99.99,,2013-02-07 08:01:00,
2013-02-07 08:11:00,20.0,19.0,-100.00,East,89,0.0,2.0,94,-99.99,,,-99.99,,2013-02-07 08:11:00,
2013-02-07 08:21:00,20.0,19.0,-100.00,SSW,203,0.0,2.0,94,-99.99,,,-99.99,,2013-02-07 08:21:00,
2013-02-07 08:31:00,20.0,18.0,-100.00,South,191,0.0,3.0,93,-99.99,,,-99.99,,2013-02-07 08:31:00,
2013-02-07 08:42:00,20.0,18.0,-100.00,South,191,0.0,3.0,93,-99.99,,,-99.99,,2013-02-07 08:42:00,
2013-02-07 08:52:00,20.0,19.0,-100.00,East,100,0.0,0.0,94,-99.99,,,-99.99,,2013-02-07 08:52:00,
2013-02-07 09:01:00,20.0,19.0,-100.00,ENE,65,1.0,2.0,94,-99.99,,,-99.99,,2013-02-07 09:01:00,
2013-02-07 09:11:00,20.0,19.0,-100.00,ENE,65,1.0,2.0,94,-99.99,,,-99.99,,2013-02-07 09:11:00,
2013-02-07 09:21:00,19.0,17.0,-100.00,ENE,66,4.0,7.0,92,-99.99,,,-99.99,,2013-02-07 09:21:00,
2013-02-07 09:31:00,18.0,16.0,-100.00,ENE,72,3.0,6.0,92,-99.99,,,-99.99,,2013-02-07 09:31:00,
2013-02-07 09:41:00,18.0,16.0,-100.00,ENE,72,3.0,6.0,92,-99.99,,,-99.99,,2013-02-07 09:41:00,
2013-02-07 09:51:00,19.0,17.0,-100.00,SSE,168,1.0,4.0,93,-99.99,,,-99.99,,2013-02-07 09:51:00,
2013-02-07 10:01:00,18.0,16.0,-100.00,ESE,109,0.0,2.0,92,-99.99,,,-99.99,,2013-02-07 10:01:00,
2013-02-07 10:11:00,18.0,16.0,-100.00,ESE,109,0.0,2.0,92,-99.99,,,-99.99,,2013-02-07 10:11:00,
2013-02-07 10:22:00,17.0,15.0,-100.00,NE,47,2.0,3.0,91,-99.99,,,-99.99,,2013-02-07 10:22:00,
2013-02-07 10:31:00,17.0,15.0,-100.00,ENE,61,1.0,3.0,93,-99.99,,,-99.99,,2013-02-07 10:31:00,
2013-02-07 10:41:00,17.0,15.0,-100.00,ENE,61,1.0,3.0,93,-99.99,,,-99.99,,2013-02-07 10:41:00,
2013-02-07 10:51:00,18.0,16.0,-100.00,ENE,64,3.0,5.0,92,-99.99,,,-99.99,,2013-02-07 10:51:00,
2013-02-07 11:01:00,18.0,16.0,-100.00,ENE,78,0.0,4.0,92,-99.99,,,-99.99,,2013-02-07 11:01:00,
2013-02-07 11:11:00,18.0,16.0,-100.00,ENE,78,0.0,4.0,92,-99.99,,,-99.99,,2013-02-07 11:11:00,
2013-02-07 11:22:00,18.0,16.0,-100.00,South,173,1.0,3.0,92,-99.99,,,-99.99,,2013-02-07 11:22:00,
2013-02-07 11:32:00,18.0,16.0,-100.00,South,173,1.0,3.0,92,-99.99,,,-99.99,,2013-02-07 11:32:00,
2013-02-07 11:43:00,18.0,16.0,-100.00,South,173,1.0,3.0,92,-99.99,,,-99.99,,2013-02-07 11:43:00,
2013-02-07 11:52:00,18.0,16.0,-100.00,NE,43,0.0,4.0,92,-99.99,,,-99.99,,2013-02-07 11:52:00,
2013-02-07 12:02:00,17.0,15.0,-100.00,NE,51,2.0,6.0,91,-99.99,,,-99.99,,2013-02-07 12:02:00,
2013-02-07 12:11:00,17.0,15.0,-100.00,NE,51,2.0,6.0,91,-99.99,,,-99.99,,2013-02-07 12:11:00,
2013-02-07 12:22:00,17.0,15.0,-100.00,North,1,0.0,3.0,92,-99.99,,,-99.99,,2013-02-07 12:22:00,
2013-02-07 12:32:00,18.0,16.0,-100.00,NNE,24,1.0,4.0,93,-99.99,,,-99.99,,2013-02-07 12:32:00,
2013-02-07 12:42:00,18.0,16.0,-100.00,NNE,24,1.0,4.0,93,-99.99,,,-99.99,,2013-02-07 12:42:00,
2013-02-07 12:52:00,20.0,19.0,-100.00,SE,126,6.0,15.0,94,-99.99,,,-99.99,,2013-02-07 12:52:00,
2013-02-07 13:02:00,21.0,19.0,-100.00,West,269,2.0,9.0,92,-99.99,,,-99.99,,2013-02-07 13:02:00,
2013-02-07 13:11:00,21.0,19.0,-100.00,West,269,2.0,9.0,92,-99.99,,,-99.99,,2013-02-07 13:11:00,
2013-02-07 13:21:00,20.0,18.0,-100.00,WSW,257,2.0,5.0,93,-99.99,,,-99.99,,2013-02-07 13:21:00,
2013-02-07 13:32:00,20.0,18.0,-100.00,SSE,164,3.0,9.0,93,-99.99,,,-99.99,,2013-02-07 13:32:00,
2013-02-07 13:42:00,20.0,18.0,-100.00,SSE,164,3.0,9.0,93,-99.99,,,-99.99,,2013-02-07 13:42:00,
2013-02-07 13:51:00,23.0,20.0,-100.00,NNE,26,2.0,11.0,87,-99.99,,,-99.99,,2013-02-07 13:51:00,
2013-02-07 14:01:00,22.0,20.0,-100.00,SSW,203,0.0,5.0,90,-99.99,,,-99.99,,2013-02-07 14:01:00,
2013-02-07 14:11:00,22.0,20.0,-100.00,SSW,203,0.0,5.0,90,-99.99,,,-99.99,,2013-02-07 14:11:00,
2013-02-07 14:21:00,22.0,20.0,-100.00,South,182,2.0,14.0,90,-99.99,,,-99.99,,2013-02-07 14:21:00,
2013-02-07 14:32:00,23.0,19.0,-100.00,SSW,208,2.0,15.0,84,-99.99,,,-99.99,,2013-02-07 14:32:00,
2013-02-07 14:41:00,23.0,19.0,-100.00,SSW,208,2.0,15.0,84,-99.99,,,-99.99,,2013-02-07 14:41:00,
2013-02-07 14:52:00,23.0,19.0,-100.00,SSW,208,2.0,15.0,84,-99.99,,,-99.99,,2013-02-07 14:52:00,
2013-02-07 15:01:00,23.0,18.0,-100.00,SSE,163,7.0,15.0,82,-99.99,,,-99.99,,2013-02-07 15:01:00,
2013-02-07 15:11:00,23.0,18.0,-100.00,SSE,163,7.0,15.0,82,-99.99,,,-99.99,,2013-02-07 15:11:00,
2013-02-07 15:21:00,24.0,18.0,-100.00,SE,141,5.0,12.0,77,-99.99,,,-99.99,,2013-02-07 15:21:00,
2013-02-07 15:31:00,25.0,16.0,-100.00,SE,131,7.0,18.0,68,-99.99,,,-99.99,,2013-02-07 15:31:00,
2013-02-07 15:42:00,25.0,16.0,-100.00,SE,131,7.0,18.0,68,-99.99,,,-99.99,,2013-02-07 15:42:00,
2013-02-07 15:52:00,26.0,18.0,-100.00,ESE,118,8.0,25.0,71,-99.99,,,-99.99,,2013-02-07 15:52:00,
2013-02-07 16:01:00,26.0,17.0,-100.00,SE,126,12.0,21.0,68,-99.99,,,-99.99,,2013-02-07 16:01:00,
2013-02-07 16:11:00,26.0,17.0,-100.00,SE,126,12.0,21.0,68,-99.99,,,-99.99,,2013-02-07 16:11:00,
2013-02-07 16:21:00,26.0,19.0,-100.00,SE,133,9.0,25.0,73,-99.99,,,-99.99,,2013-02-07 16:21:00,
2013-02-07 16:31:00,26.0,19.0,-100.00,SE,133,9.0,25.0,73,-99.99,,,-99.99,,2013-02-07 16:31:00,
2013-02-07 16:41:00,26.0,19.0,-100.00,SE,133,9.0,25.0,73,-99.99,,,-99.99,,2013-02-07 16:41:00,
2013-02-07 16:52:00,25.0,18.0,-100.00,SE,128,14.0,28.0,75,-99.99,,,-99.99,,2013-02-07 16:52:00,
2013-02-07 17:01:00,25.0,19.0,-100.00,SE,135,13.0,32.0,79,-99.99,,,-99.99,,2013-02-07 17:01:00,
2013-02-07 17:11:00,25.0,19.0,-100.00,SE,135,13.0,32.0,79,-99.99,,,-99.99,,2013-02-07 17:11:00,
2013-02-07 17:21:00,25.0,20.0,-100.00,SE,133,12.0,29.0,81,-99.99,,,-99.99,,2013-02-07 17:21:00,
2013-02-07 17:31:00,25.0,20.0,-100.00,SE,128,14.0,31.0,82,-99.99,,,-99.99,,2013-02-07 17:31:00,
2013-02-07 17:42:00,25.0,20.0,-100.00,SE,128,14.0,31.0,82,-99.99,,,-99.99,,2013-02-07 17:42:00,
2013-02-07 17:52:00,25.0,20.0,-100.00,ESE,120,10.0,21.0,82,-99.99,,,-99.99,,2013-02-07 17:52:00,
2013-02-07 18:01:00,25.0,20.0,-100.00,SE,141,14.0,26.0,80,-99.99,,,-99.99,,2013-02-07 18:01:00,
2013-02-07 18:11:00,25.0,20.0,-100.00,SE,141,14.0,26.0,80,-99.99,,,-99.99,,2013-02-07 18:11:00,
2013-02-07 18:22:00,25.0,19.0,-100.00,SE,134,18.0,35.0,79,-99.99,,,-99.99,,2013-02-07 18:22:00,
2013-02-07 18:31:00,26.0,20.0,-100.00,SE,135,15.0,37.0,79,-99.99,,,-99.99,,2013-02-07 18:31:00,
2013-02-07 18:41:00,26.0,20.0,-100.00,SE,135,15.0,37.0,79,-99.99,,,-99.99,,2013-02-07 18:41:00,
2013-02-07 18:51:00,26.0,19.0,-100.00,SE,132,20.0,38.0,76,-99.99,,,-99.99,,2013-02-07 18:51:00,
2013-02-07 19:01:00,26.0,20.0,-100.00,ESE,122,16.0,38.0,77,-99.99,,,-99.99,,2013-02-07 19:01:00,
2013-02-07 19:11:00,26.0,20.0,-100.00,ESE,122,16.0,38.0,77,-99.99,,,-99.99,,2013-02-07 19:11:00,
2013-02-07 19:22:00,26.0,20.0,-100.00,ESE,123,19.0,36.0,77,-99.99,,,-99.99,,2013-02-07 19:22:00,
2013-02-07 19:31:00,26.0,20.0,-100.00,ESE,120,19.0,39.0,78,-99.99,,,-99.99,,2013-02-07 19:31:00,
2013-02-07 19:41:00,26.0,20.0,-100.00,ESE,120,19.0,39.0,78,-99.99,,,-99.99,,2013-02-07 19:41:00,
2013-02-07 19:51:00,26.0,20.0,-100.00,ESE,120,19.0,39.0,78,-99.99,,,-99.99,,2013-02-07 19:51:00,
2013-02-07 20:01:00,26.0,20.0,-100.00,ESE,113,23.0,46.0,77,-99.99,,,-99.99,,2013-02-07 20:01:00,
2013-02-07 20:11:00,26.0,20.0,-100.00,ESE,113,23.0,46.0,77,-99.99,,,-99.99,,2013-02-07 20:11:00,
2013-02-07 20:21:00,27.0,20.0,-100.00,ESE,112,16.0,35.0,76,-99.99,,,-99.99,,2013-02-07 20:21:00,
2013-02-07 20:31:00,27.0,21.0,-100.00,ESE,107,14.0,43.0,79,-99.99,,,-99.99,,2013-02-07 20:31:00,
2013-02-07 20:41:00,27.0,21.0,-100.00,ESE,107,14.0,43.0,79,-99.99,,,-99.99,,2013-02-07 20:41:00,
2013-02-07 20:52:00,27.0,21.0,-100.00,ESE,104,15.0,38.0,78,-99.99,,,-99.99,,2013-02-07 20:52:00,
2013-02-07 21:01:00,27.0,20.0,-100.00,East,99,18.0,37.0,76,-99.99,,,-99.99,,2013-02-07 21:01:00,
2013-02-07 21:11:00,27.0,20.0,-100.00,East,99,18.0,37.0,76,-99.99,,,-99.99,,2013-02-07 21:11:00,
2013-02-07 21:21:00,27.0,21.0,-100.00,ESE,107,16.0,35.0,78,-99.99,,,-99.99,,2013-02-07 21:21:00,
2013-02-07 21:31:00,27.0,20.0,-100.00,ESE,107,17.0,41.0,76,-99.99,,,-99.99,,2013-02-07 21:31:00,
2013-02-07 21:41:00,27.0,20.0,-100.00,ESE,107,17.0,41.0,76,-99.99,,,-99.99,,2013-02-07 21:41:00,
2013-02-07 21:51:00,27.0,21.0,-100.00,ESE,104,16.0,36.0,78,-99.99,,,-99.99,,2013-02-07 21:51:00,
2013-02-07 22:01:00,27.0,21.0,-100.00,ESE,111,16.0,42.0,79,-99.99,,,-99.99,,2013-02-07 22:01:00,
2013-02-07 22:11:00,27.0,21.0,-100.00,ESE,111,16.0,42.0,79,-99.99,,,-99.99,,2013-02-07 22:11:00,
2013-02-07 22:21:00,27.0,21.0,-100.00,ESE,117,16.0,36.0,78,-99.99,,,-99.99,,2013-02-07 22:21:00,
2013-02-07 22:31:00,27.0,22.0,-100.00,East,101,15.0,39.0,80,-99.99,,,-99.99,,2013-02-07 22:31:00,
2013-02-07 22:42:00,27.0,22.0,-100.00,East,101,15.0,39.0,80,-99.99,,,-99.99,,2013-02-07 22:42:00,
2013-02-07 22:51:00,27.0,22.0,-100.00,ESE,105,15.0,34.0,81,-99.99,,,-99.99,,2013-02-07 22:51:00,
2013-02-07 23:01:00,27.0,22.0,-100.00,SE,124,13.0,38.0,82,-99.99,,,-99.99,,2013-02-07 23:01:00,
2013-02-07 23:11:00,27.0,22.0,-100.00,SE,124,13.0,38.0,82,-99.99,,,-99.99,,2013-02-07 23:11:00,
2013-02-07 23:21:00,27.0,22.0,-100.00,ESE,117,12.0,34.0,82,-99.99,,,-99.99,,2013-02-07 23:21:00,
2013-02-07 23:31:00,27.0,23.0,-100.00,ENE,75,9.0,20.0,84,-99.99,,,-99.99,,2013-02-07 23:31:00,
2013-02-07 23:41:00,27.0,23.0,-100.00,ENE,75,9.0,20.0,84,-99.99,,,-99.99,,2013-02-07 23:41:00,
2013-02-07 23:52:00,27.0,22.0,-100.00,East,98,14.0,30.0,82,-99.99,,,-99.99,,2013-02-07 23:52:00,